sensor_id;sensor_type;location;lat;lon;timestamp;noise_LAeq;noise_LA_min;noise_LA_max;noise_LA01;noise_LA95
66888;Laerm;67239;51.680;5.976;2023-08-31T00:02:21;40.53;37.41;45.33;;
66888;Laerm;67239;51.680;5.976;2023-08-31T00:04:51;39.84;36.69;48.59;;
66888;Laerm;67239;51.680;5.976;2023-08-31T00:07:21;40.96;36.70;53.67;;
66888;Laerm;67239;51.680;5.976;2023-08-31T00:09:49;57.89;37.28;75.74;;
66888;Laerm;67239;51.680;5.976;2023-08-31T00:12:16;39.82;36.64;43.94;;
66888;Laerm;67239;51.680;5.976;2023-08-31T00:14:43;39.20;36.62;43.06;;
66888;Laerm;67239;51.680;5.976;2023-08-31T00:17:10;38.57;35.46;46.23;;
66888;Laerm;67239;51.680;5.976;2023-08-31T00:19:37;38.54;36.17;43.22;;
66888;Laerm;67239;51.680;5.976;2023-08-31T00:22:04;38.23;35.39;42.48;;
66888;Laerm;67239;51.680;5.976;2023-08-31T00:24:32;38.52;35.64;44.74;;
66888;Laerm;67239;51.680;5.976;2023-08-31T00:27:03;39.27;35.87;45.92;;
66888;Laerm;67239;51.680;5.976;2023-08-31T00:29:30;55.99;35.94;72.38;;
66888;Laerm;67239;51.680;5.976;2023-08-31T00:31:58;38.63;35.91;48.85;;
66888;Laerm;67239;51.680;5.976;2023-08-31T00:34:25;40.22;36.53;50.71;;
66888;Laerm;67239;51.680;5.976;2023-08-31T00:36:52;38.14;35.22;41.99;;
66888;Laerm;67239;51.680;5.976;2023-08-31T00:39:19;37.69;35.38;41.18;;
66888;Laerm;67239;51.680;5.976;2023-08-31T00:41:47;38.17;34.84;46.65;;
66888;Laerm;67239;51.680;5.976;2023-08-31T00:44:14;61.34;35.36;80.11;;
66888;Laerm;67239;51.680;5.976;2023-08-31T00:46:47;37.79;34.60;45.29;;
66888;Laerm;67239;51.680;5.976;2023-08-31T00:49:15;38.68;35.70;46.60;;
66888;Laerm;67239;51.680;5.976;2023-08-31T00:51:45;38.58;35.05;45.05;;
66888;Laerm;67239;51.680;5.976;2023-08-31T00:54:17;59.68;36.14;78.10;;
66888;Laerm;67239;51.680;5.976;2023-08-31T00:56:45;38.25;35.35;47.95;;
66888;Laerm;67239;51.680;5.976;2023-08-31T00:59:12;37.30;34.48;42.58;;
66888;Laerm;67239;51.680;5.976;2023-08-31T01:02:32;37.79;34.85;43.64;;
66888;Laerm;67239;51.680;5.976;2023-08-31T01:05:45;37.95;34.92;44.19;;
66888;Laerm;67239;51.680;5.976;2023-08-31T01:08:26;38.53;35.14;44.79;;
66888;Laerm;67239;51.680;5.976;2023-08-31T01:14:16;39.50;36.59;44.72;;
66888;Laerm;67239;51.680;5.976;2023-08-31T01:16:48;63.21;35.50;82.01;;
66888;Laerm;67239;51.680;5.976;2023-08-31T01:19:42;40.88;35.66;52.83;;
66888;Laerm;67239;51.680;5.976;2023-08-31T01:23:02;39.50;35.30;44.77;;
66888;Laerm;67239;51.680;5.976;2023-08-31T01:25:32;38.76;34.82;47.05;;
66888;Laerm;67239;51.680;5.976;2023-08-31T01:28:02;38.39;35.49;45.32;;
66888;Laerm;67239;51.680;5.976;2023-08-31T01:30:30;38.99;35.55;46.30;;
66888;Laerm;67239;51.680;5.976;2023-08-31T01:32:58;38.70;35.50;46.04;;
66888;Laerm;67239;51.680;5.976;2023-08-31T01:35:26;42.47;35.33;68.97;;
66888;Laerm;67239;51.680;5.976;2023-08-31T01:37:59;38.90;35.44;45.61;;
66888;Laerm;67239;51.680;5.976;2023-08-31T01:43:26;39.01;36.01;46.98;;
66888;Laerm;67239;51.680;5.976;2023-08-31T01:45:55;38.43;35.42;54.91;;
66888;Laerm;67239;51.680;5.976;2023-08-31T01:48:22;60.78;36.63;81.31;;
66888;Laerm;67239;51.680;5.976;2023-08-31T01:50:49;38.81;35.47;46.11;;
66888;Laerm;67239;51.680;5.976;2023-08-31T01:53:16;38.57;35.32;46.70;;
66888;Laerm;67239;51.680;5.976;2023-08-31T01:55:43;39.03;35.56;44.54;;
66888;Laerm;67239;51.680;5.976;2023-08-31T01:58:10;55.26;36.26;74.37;;
66888;Laerm;67239;51.680;5.976;2023-08-31T02:00:38;55.86;35.99;74.81;;
66888;Laerm;67239;51.680;5.976;2023-08-31T02:03:06;40.30;35.59;52.08;;
66888;Laerm;67239;51.680;5.976;2023-08-31T02:05:35;38.77;35.33;44.84;;
66888;Laerm;67239;51.680;5.976;2023-08-31T02:08:02;59.48;36.26;78.84;;
66888;Laerm;67239;51.680;5.976;2023-08-31T02:10:29;56.24;36.09;74.22;;
66888;Laerm;67239;51.680;5.976;2023-08-31T02:12:56;38.49;34.93;45.52;;
66888;Laerm;67239;51.680;5.976;2023-08-31T02:15:24;39.70;35.47;46.30;;
66888;Laerm;67239;51.680;5.976;2023-08-31T02:17:53;39.51;36.19;43.90;;
66888;Laerm;67239;51.680;5.976;2023-08-31T02:20:21;60.26;36.25;78.30;;
66888;Laerm;67239;51.680;5.976;2023-08-31T02:22:48;38.88;35.21;44.86;;
66888;Laerm;67239;51.680;5.976;2023-08-31T02:25:17;39.68;35.52;46.48;;
66888;Laerm;67239;51.680;5.976;2023-08-31T02:27:45;56.41;36.93;75.21;;
66888;Laerm;67239;51.680;5.976;2023-08-31T02:30:13;40.23;36.96;44.72;;
66888;Laerm;67239;51.680;5.976;2023-08-31T02:32:40;39.75;37.09;47.64;;
66888;Laerm;67239;51.680;5.976;2023-08-31T02:35:07;38.55;35.46;46.72;;
66888;Laerm;67239;51.680;5.976;2023-08-31T02:37:34;57.97;36.87;76.69;;
66888;Laerm;67239;51.680;5.976;2023-08-31T02:40:01;58.57;36.68;77.74;;
66888;Laerm;67239;51.680;5.976;2023-08-31T02:42:29;40.02;35.90;46.95;;
66888;Laerm;67239;51.680;5.976;2023-08-31T02:44:56;59.64;37.73;78.56;;
66888;Laerm;67239;51.680;5.976;2023-08-31T02:47:23;40.04;37.47;44.61;;
66888;Laerm;67239;51.680;5.976;2023-08-31T02:49:50;41.01;37.82;46.53;;
66888;Laerm;67239;51.680;5.976;2023-08-31T02:52:17;51.47;36.92;66.99;;
66888;Laerm;67239;51.680;5.976;2023-08-31T02:54:45;63.80;37.28;80.88;;
66888;Laerm;67239;51.680;5.976;2023-08-31T02:57:12;56.04;37.32;74.07;;
66888;Laerm;67239;51.680;5.976;2023-08-31T02:59:39;59.59;36.52;76.96;;
66888;Laerm;67239;51.680;5.976;2023-08-31T03:02:07;53.53;37.22;69.57;;
66888;Laerm;67239;51.680;5.976;2023-08-31T03:04:35;40.38;36.52;48.83;;
66888;Laerm;67239;51.680;5.976;2023-08-31T03:07:04;59.19;37.96;78.90;;
66888;Laerm;67239;51.680;5.976;2023-08-31T03:09:32;64.45;37.27;85.17;;
66888;Laerm;67239;51.680;5.976;2023-08-31T03:11:59;59.66;36.86;77.42;;
66888;Laerm;67239;51.680;5.976;2023-08-31T03:14:26;55.20;37.54;75.18;;
66888;Laerm;67239;51.680;5.976;2023-08-31T03:16:53;59.99;38.15;75.43;;
66888;Laerm;67239;51.680;5.976;2023-08-31T03:19:20;60.32;38.03;75.56;;
66888;Laerm;67239;51.680;5.976;2023-08-31T03:21:47;40.95;37.03;47.96;;
66888;Laerm;67239;51.680;5.976;2023-08-31T03:24:15;61.54;38.68;79.18;;
66888;Laerm;67239;51.680;5.976;2023-08-31T03:26:42;44.42;38.67;65.27;;
66888;Laerm;67239;51.680;5.976;2023-08-31T03:29:09;57.98;39.08;74.54;;
66888;Laerm;67239;51.680;5.976;2023-08-31T03:31:36;63.93;40.49;79.57;;
66888;Laerm;67239;51.680;5.976;2023-08-31T03:34:04;62.57;40.25;78.70;;
66888;Laerm;67239;51.680;5.976;2023-08-31T03:36:31;57.57;39.62;72.07;;
66888;Laerm;67239;51.680;5.976;2023-08-31T03:38:58;58.34;41.50;73.86;;
66888;Laerm;67239;51.680;5.976;2023-08-31T03:41:25;60.98;40.09;76.70;;
66888;Laerm;67239;51.680;5.976;2023-08-31T03:43:52;57.61;39.43;73.42;;
66888;Laerm;67239;51.680;5.976;2023-08-31T03:46:22;61.45;40.53;79.38;;
66888;Laerm;67239;51.680;5.976;2023-08-31T03:48:49;65.32;39.23;82.49;;
66888;Laerm;67239;51.680;5.976;2023-08-31T03:51:16;63.56;40.68;79.37;;
66888;Laerm;67239;51.680;5.976;2023-08-31T03:53:44;66.76;39.66;82.22;;
66888;Laerm;67239;51.680;5.976;2023-08-31T03:56:12;64.59;40.01;80.56;;
66888;Laerm;67239;51.680;5.976;2023-08-31T03:58:40;59.23;39.97;74.53;;
66888;Laerm;67239;51.680;5.976;2023-08-31T04:01:07;65.17;39.63;77.76;;
66888;Laerm;67239;51.680;5.976;2023-08-31T04:03:34;66.24;40.86;80.57;;
66888;Laerm;67239;51.680;5.976;2023-08-31T04:06:02;67.19;41.23;81.39;;
66888;Laerm;67239;51.680;5.976;2023-08-31T04:08:29;68.44;40.87;85.31;;
66888;Laerm;67239;51.680;5.976;2023-08-31T04:10:56;62.88;41.32;78.75;;
66888;Laerm;67239;51.680;5.976;2023-08-31T04:13:23;69.12;41.91;84.41;;
66888;Laerm;67239;51.680;5.976;2023-08-31T04:15:52;66.44;42.31;80.84;;
66888;Laerm;67239;51.680;5.976;2023-08-31T04:18:19;61.84;42.65;74.41;;
66888;Laerm;67239;51.680;5.976;2023-08-31T04:20:53;64.42;42.12;80.79;;
66888;Laerm;67239;51.680;5.976;2023-08-31T04:23:21;67.15;44.01;82.99;;
66888;Laerm;67239;51.680;5.976;2023-08-31T04:25:48;64.89;42.32;81.11;;
66888;Laerm;67239;51.680;5.976;2023-08-31T04:28:15;66.12;43.32;82.15;;
66888;Laerm;67239;51.680;5.976;2023-08-31T04:30:42;65.95;44.49;78.30;;
66888;Laerm;67239;51.680;5.976;2023-08-31T04:33:11;67.25;43.29;81.87;;
66888;Laerm;67239;51.680;5.976;2023-08-31T04:35:39;65.66;44.85;79.71;;
66888;Laerm;67239;51.680;5.976;2023-08-31T04:38:06;64.74;44.63;79.40;;
66888;Laerm;67239;51.680;5.976;2023-08-31T04:40:33;69.38;43.53;81.56;;
66888;Laerm;67239;51.680;5.976;2023-08-31T04:43:00;69.36;46.83;85.31;;
66888;Laerm;67239;51.680;5.976;2023-08-31T04:45:27;68.17;44.55;81.14;;
66888;Laerm;67239;51.680;5.976;2023-08-31T04:47:55;67.83;45.53;81.62;;
66888;Laerm;67239;51.680;5.976;2023-08-31T04:50:22;65.00;42.96;79.45;;
66888;Laerm;67239;51.680;5.976;2023-08-31T04:52:49;70.44;46.42;85.76;;
66888;Laerm;67239;51.680;5.976;2023-08-31T04:55:16;69.00;44.97;82.14;;
66888;Laerm;67239;51.680;5.976;2023-08-31T04:57:43;69.72;46.63;80.93;;
66888;Laerm;67239;51.680;5.976;2023-08-31T05:00:11;66.70;45.24;79.96;;
66888;Laerm;67239;51.680;5.976;2023-08-31T05:02:38;68.96;46.25;81.97;;
66888;Laerm;67239;51.680;5.976;2023-08-31T05:05:07;61.79;42.86;78.98;;
66888;Laerm;67239;51.680;5.976;2023-08-31T05:07:34;67.35;43.75;82.39;;
66888;Laerm;67239;51.680;5.976;2023-08-31T05:10:01;65.60;44.66;79.93;;
66888;Laerm;67239;51.680;5.976;2023-08-31T05:12:29;69.47;46.38;81.37;;
66888;Laerm;67239;51.680;5.976;2023-08-31T05:14:56;64.82;45.97;78.20;;
66888;Laerm;67239;51.680;5.976;2023-08-31T05:17:23;68.81;47.56;80.98;;
66888;Laerm;67239;51.680;5.976;2023-08-31T05:19:50;69.03;45.71;85.57;;
66888;Laerm;67239;51.680;5.976;2023-08-31T05:22:17;67.93;46.67;82.86;;
66888;Laerm;67239;51.680;5.976;2023-08-31T05:24:44;69.15;49.04;81.69;;
66888;Laerm;67239;51.680;5.976;2023-08-31T05:27:12;70.68;48.01;83.01;;
66888;Laerm;67239;51.680;5.976;2023-08-31T05:29:39;69.24;44.33;82.95;;
66888;Laerm;67239;51.680;5.976;2023-08-31T05:32:06;68.26;46.77;79.76;;
66888;Laerm;67239;51.680;5.976;2023-08-31T05:34:33;67.42;46.29;80.79;;
66888;Laerm;67239;51.680;5.976;2023-08-31T05:37:05;66.96;46.95;81.03;;
66888;Laerm;67239;51.680;5.976;2023-08-31T05:39:34;68.75;47.64;81.71;;
66888;Laerm;67239;51.680;5.976;2023-08-31T05:42:01;70.02;49.72;84.04;;
66888;Laerm;67239;51.680;5.976;2023-08-31T05:44:29;69.94;50.75;79.89;;
66888;Laerm;67239;51.680;5.976;2023-08-31T05:46:57;67.29;46.91;82.88;;
66888;Laerm;67239;51.680;5.976;2023-08-31T05:49:24;66.83;44.14;81.49;;
66888;Laerm;67239;51.680;5.976;2023-08-31T05:51:51;69.35;46.39;80.88;;
66888;Laerm;67239;51.680;5.976;2023-08-31T05:54:18;66.28;46.36;79.44;;
66888;Laerm;67239;51.680;5.976;2023-08-31T05:56:45;66.51;45.07;79.08;;
66888;Laerm;67239;51.680;5.976;2023-08-31T05:59:14;68.80;48.77;81.44;;
66888;Laerm;67239;51.680;5.976;2023-08-31T06:01:43;67.02;46.06;80.45;;
66888;Laerm;67239;51.680;5.976;2023-08-31T06:04:10;62.83;45.22;77.59;;
66888;Laerm;67239;51.680;5.976;2023-08-31T06:06:37;65.93;45.86;79.16;;
66888;Laerm;67239;51.680;5.976;2023-08-31T06:09:05;68.12;46.06;81.40;;
66888;Laerm;67239;51.680;5.976;2023-08-31T06:11:33;70.03;47.64;82.19;;
66888;Laerm;67239;51.680;5.976;2023-08-31T06:14:01;67.81;47.94;79.99;;
66888;Laerm;67239;51.680;5.976;2023-08-31T06:16:30;65.38;47.30;78.19;;
66888;Laerm;67239;51.680;5.976;2023-08-31T06:18:57;69.81;48.84;80.90;;
66888;Laerm;67239;51.680;5.976;2023-08-31T06:21:25;64.63;46.50;80.97;;
66888;Laerm;67239;51.680;5.976;2023-08-31T06:23:52;70.96;48.69;81.52;;
66888;Laerm;67239;51.680;5.976;2023-08-31T06:26:19;68.60;48.63;82.14;;
66888;Laerm;67239;51.680;5.976;2023-08-31T06:28:46;69.53;45.50;82.60;;
66888;Laerm;67239;51.680;5.976;2023-08-31T06:31:13;69.13;48.29;81.22;;
66888;Laerm;67239;51.680;5.976;2023-08-31T06:33:40;67.87;47.22;82.90;;
66888;Laerm;67239;51.680;5.976;2023-08-31T06:36:07;68.56;47.73;82.76;;
66888;Laerm;67239;51.680;5.976;2023-08-31T06:38:34;66.81;48.56;78.69;;
66888;Laerm;67239;51.680;5.976;2023-08-31T06:41:02;69.77;47.03;83.77;;
66888;Laerm;67239;51.680;5.976;2023-08-31T06:43:29;69.55;48.07;81.94;;
66888;Laerm;67239;51.680;5.976;2023-08-31T06:45:56;70.83;51.71;80.83;;
66888;Laerm;67239;51.680;5.976;2023-08-31T06:48:36;67.72;46.17;80.37;;
66888;Laerm;67239;51.680;5.976;2023-08-31T06:51:03;65.34;44.92;77.99;;
66888;Laerm;67239;51.680;5.976;2023-08-31T06:53:30;67.36;46.51;82.12;;
66888;Laerm;67239;51.680;5.976;2023-08-31T06:56:01;68.56;47.44;84.33;;
66888;Laerm;67239;51.680;5.976;2023-08-31T06:58:28;69.43;48.49;82.34;;
66888;Laerm;67239;51.680;5.976;2023-08-31T07:00:55;67.69;49.05;81.45;;
66888;Laerm;67239;51.680;5.976;2023-08-31T07:03:22;70.70;46.58;84.83;;
66888;Laerm;67239;51.680;5.976;2023-08-31T07:05:53;66.52;46.66;76.87;;
66888;Laerm;67239;51.680;5.976;2023-08-31T07:08:21;65.70;46.44;78.60;;
66888;Laerm;67239;51.680;5.976;2023-08-31T07:10:50;69.85;48.43;82.29;;
66888;Laerm;67239;51.680;5.976;2023-08-31T07:13:17;69.48;44.84;81.67;;
66888;Laerm;67239;51.680;5.976;2023-08-31T07:15:45;67.40;47.51;78.04;;
66888;Laerm;67239;51.680;5.976;2023-08-31T07:18:12;68.65;46.44;79.23;;
66888;Laerm;67239;51.680;5.976;2023-08-31T07:20:39;67.06;45.74;80.04;;
66888;Laerm;67239;51.680;5.976;2023-08-31T07:23:06;60.58;43.98;77.02;;
66888;Laerm;67239;51.680;5.976;2023-08-31T07:25:33;68.51;43.39;81.57;;
66888;Laerm;67239;51.680;5.976;2023-08-31T07:28:03;68.00;43.85;81.89;;
66888;Laerm;67239;51.680;5.976;2023-08-31T07:30:30;66.82;49.03;79.88;;
66888;Laerm;67239;51.680;5.976;2023-08-31T07:32:57;69.28;46.64;81.95;;
66888;Laerm;67239;51.680;5.976;2023-08-31T07:35:27;69.81;45.54;82.11;;
66888;Laerm;67239;51.680;5.976;2023-08-31T07:37:54;67.05;47.36;81.19;;
66888;Laerm;67239;51.680;5.976;2023-08-31T07:40:21;64.49;47.01;78.80;;
66888;Laerm;67239;51.680;5.976;2023-08-31T07:42:48;68.71;50.09;80.62;;
66888;Laerm;67239;51.680;5.976;2023-08-31T07:45:15;64.58;44.24;77.19;;
66888;Laerm;67239;51.680;5.976;2023-08-31T07:47:43;68.26;44.38;83.95;;
66888;Laerm;67239;51.680;5.976;2023-08-31T07:50:10;69.00;46.06;86.01;;
66888;Laerm;67239;51.680;5.976;2023-08-31T07:52:37;65.89;46.96;76.94;;
66888;Laerm;67239;51.680;5.976;2023-08-31T07:55:05;68.47;43.72;80.17;;
66888;Laerm;67239;51.680;5.976;2023-08-31T07:57:33;67.39;46.09;83.19;;
66888;Laerm;67239;51.680;5.976;2023-08-31T08:00:01;70.36;45.98;82.86;;
66888;Laerm;67239;51.680;5.976;2023-08-31T08:02:38;68.58;46.26;79.33;;
66888;Laerm;67239;51.680;5.976;2023-08-31T08:05:06;68.06;46.57;77.04;;
66888;Laerm;67239;51.680;5.976;2023-08-31T08:07:34;65.78;44.27;80.39;;
66888;Laerm;67239;51.680;5.976;2023-08-31T08:10:01;67.96;45.01;82.60;;
66888;Laerm;67239;51.680;5.976;2023-08-31T08:12:40;66.04;45.80;80.32;;
66888;Laerm;67239;51.680;5.976;2023-08-31T08:15:07;67.97;45.56;82.29;;
66888;Laerm;67239;51.680;5.976;2023-08-31T08:17:35;66.86;48.40;79.23;;
66888;Laerm;67239;51.680;5.976;2023-08-31T08:20:04;68.96;45.21;81.55;;
66888;Laerm;67239;51.680;5.976;2023-08-31T08:22:32;66.34;45.89;81.42;;
66888;Laerm;67239;51.680;5.976;2023-08-31T08:24:59;65.75;48.43;79.34;;
66888;Laerm;67239;51.680;5.976;2023-08-31T08:27:27;65.61;47.74;80.25;;
66888;Laerm;67239;51.680;5.976;2023-08-31T08:29:54;70.29;52.12;86.88;;
66888;Laerm;67239;51.680;5.976;2023-08-31T08:32:21;65.55;48.50;78.39;;
66888;Laerm;67239;51.680;5.976;2023-08-31T08:34:48;66.20;48.49;79.98;;
66888;Laerm;67239;51.680;5.976;2023-08-31T08:37:15;66.81;50.09;81.19;;
66888;Laerm;67239;51.680;5.976;2023-08-31T08:39:42;69.00;53.11;82.71;;
66888;Laerm;67239;51.680;5.976;2023-08-31T08:42:10;68.32;50.33;81.97;;
66888;Laerm;67239;51.680;5.976;2023-08-31T08:44:39;65.84;47.58;78.75;;
66888;Laerm;67239;51.680;5.976;2023-08-31T08:47:07;67.86;48.54;80.41;;
66888;Laerm;67239;51.680;5.976;2023-08-31T08:49:35;69.39;51.12;80.91;;
66888;Laerm;67239;51.680;5.976;2023-08-31T08:52:03;68.05;48.77;80.31;;
66888;Laerm;67239;51.680;5.976;2023-08-31T08:54:32;68.80;51.70;81.84;;
66888;Laerm;67239;51.680;5.976;2023-08-31T08:56:59;70.10;52.25;84.52;;
66888;Laerm;67239;51.680;5.976;2023-08-31T08:59:28;69.17;52.09;84.60;;
66888;Laerm;67239;51.680;5.976;2023-08-31T09:01:55;67.10;50.04;79.54;;
66888;Laerm;67239;51.680;5.976;2023-08-31T09:04:22;67.81;50.21;78.04;;
66888;Laerm;67239;51.680;5.976;2023-08-31T09:06:53;64.96;48.72;78.97;;
66888;Laerm;67239;51.680;5.976;2023-08-31T09:09:20;67.86;48.73;79.79;;
66888;Laerm;67239;51.680;5.976;2023-08-31T09:11:49;70.40;52.28;85.25;;
66888;Laerm;67239;51.680;5.976;2023-08-31T09:14:19;69.09;51.02;85.19;;
66888;Laerm;67239;51.680;5.976;2023-08-31T09:16:49;66.90;50.53;82.93;;
66888;Laerm;67239;51.680;5.976;2023-08-31T09:19:25;68.79;48.90;83.68;;
66888;Laerm;67239;51.680;5.976;2023-08-31T09:21:56;68.49;50.28;83.19;;
66888;Laerm;67239;51.680;5.976;2023-08-31T09:24:24;62.95;45.86;78.33;;
66888;Laerm;67239;51.680;5.976;2023-08-31T09:26:58;66.35;47.87;82.27;;
66888;Laerm;67239;51.680;5.976;2023-08-31T09:29:25;63.18;47.48;76.50;;
66888;Laerm;67239;51.680;5.976;2023-08-31T09:31:52;63.46;50.15;75.35;;
66888;Laerm;67239;51.680;5.976;2023-08-31T09:34:20;63.84;47.15;77.03;;
66888;Laerm;67239;51.680;5.976;2023-08-31T09:36:49;69.57;49.05;83.14;;
66888;Laerm;67239;51.680;5.976;2023-08-31T09:39:16;64.33;48.71;78.76;;
66888;Laerm;67239;51.680;5.976;2023-08-31T09:41:56;68.89;51.57;82.00;;
66888;Laerm;67239;51.680;5.976;2023-08-31T09:44:23;69.13;50.78;84.31;;
66888;Laerm;67239;51.680;5.976;2023-08-31T09:46:52;67.86;51.23;79.81;;
66888;Laerm;67239;51.680;5.976;2023-08-31T09:49:21;67.57;50.22;83.42;;
66888;Laerm;67239;51.680;5.976;2023-08-31T09:51:50;66.96;50.58;83.72;;
66888;Laerm;67239;51.680;5.976;2023-08-31T09:54:20;69.20;50.56;85.54;;
66888;Laerm;67239;51.680;5.976;2023-08-31T09:56:48;68.74;48.49;85.95;;
66888;Laerm;67239;51.680;5.976;2023-08-31T09:59:16;67.50;49.67;78.10;;
66888;Laerm;67239;51.680;5.976;2023-08-31T10:01:47;68.15;51.09;82.34;;
66888;Laerm;67239;51.680;5.976;2023-08-31T10:04:16;68.40;52.50;79.25;;
66888;Laerm;67239;51.680;5.976;2023-08-31T10:06:44;65.01;49.98;76.94;;
66888;Laerm;67239;51.680;5.976;2023-08-31T10:09:13;67.39;52.68;78.35;;
66888;Laerm;67239;51.680;5.976;2023-08-31T10:11:41;66.91;49.29;80.35;;
66888;Laerm;67239;51.680;5.976;2023-08-31T10:14:13;67.69;47.38;84.07;;
66888;Laerm;67239;51.680;5.976;2023-08-31T10:16:43;65.35;47.68;78.26;;
66888;Laerm;67239;51.680;5.976;2023-08-31T10:19:11;66.88;47.60;80.42;;
66888;Laerm;67239;51.680;5.976;2023-08-31T10:21:40;69.49;49.02;82.31;;
66888;Laerm;67239;51.680;5.976;2023-08-31T10:24:08;67.43;47.04;82.50;;
66888;Laerm;67239;51.680;5.976;2023-08-31T10:26:35;70.10;48.13;86.80;;
66888;Laerm;67239;51.680;5.976;2023-08-31T10:29:02;68.11;47.42;79.63;;
66888;Laerm;67239;51.680;5.976;2023-08-31T10:31:34;67.37;47.10;80.73;;
66888;Laerm;67239;51.680;5.976;2023-08-31T10:34:04;66.56;47.43;80.24;;
66888;Laerm;67239;51.680;5.976;2023-08-31T10:36:40;69.98;48.80;81.12;;
66888;Laerm;67239;51.680;5.976;2023-08-31T10:39:17;69.60;48.71;85.95;;
66888;Laerm;67239;51.680;5.976;2023-08-31T10:41:55;65.47;44.28;79.60;;
66888;Laerm;67239;51.680;5.976;2023-08-31T10:44:25;68.69;44.07;82.98;;
66888;Laerm;67239;51.680;5.976;2023-08-31T10:46:54;63.11;42.60;78.49;;
66888;Laerm;67239;51.680;5.976;2023-08-31T10:49:23;69.77;46.25;85.02;;
66888;Laerm;67239;51.680;5.976;2023-08-31T10:51:56;69.80;47.96;82.33;;
66888;Laerm;67239;51.680;5.976;2023-08-31T10:54:31;62.45;43.90;78.05;;
66888;Laerm;67239;51.680;5.976;2023-08-31T10:57:04;66.06;43.98;78.54;;
66888;Laerm;67239;51.680;5.976;2023-08-31T11:00:02;70.65;51.10;86.13;;
66888;Laerm;67239;51.680;5.976;2023-08-31T11:05:19;68.66;49.21;80.41;;
66888;Laerm;67239;51.680;5.976;2023-08-31T11:07:50;67.14;45.00;82.16;;
66888;Laerm;67239;51.680;5.976;2023-08-31T11:10:25;69.71;48.90;84.74;;
66888;Laerm;67239;51.680;5.976;2023-08-31T11:12:56;69.49;49.90;83.19;;
66888;Laerm;67239;51.680;5.976;2023-08-31T11:15:27;69.24;49.83;82.43;;
66888;Laerm;67239;51.680;5.976;2023-08-31T11:17:55;67.96;47.43;82.00;;
66888;Laerm;67239;51.680;5.976;2023-08-31T11:20:24;68.42;53.93;80.74;;
66888;Laerm;67239;51.680;5.976;2023-08-31T11:22:58;67.21;50.85;78.86;;
66888;Laerm;67239;51.680;5.976;2023-08-31T11:25:26;68.42;51.09;82.17;;
66888;Laerm;67239;51.680;5.976;2023-08-31T11:27:55;68.58;50.69;80.79;;
66888;Laerm;67239;51.680;5.976;2023-08-31T11:30:25;67.66;50.67;82.29;;
66888;Laerm;67239;51.680;5.976;2023-08-31T11:32:53;70.63;54.50;83.82;;
66888;Laerm;67239;51.680;5.976;2023-08-31T11:35:23;70.28;47.56;82.06;;
66888;Laerm;67239;51.680;5.976;2023-08-31T11:37:56;71.34;54.43;86.19;;
66888;Laerm;67239;51.680;5.976;2023-08-31T11:40:26;67.03;48.47;80.37;;
66888;Laerm;67239;51.680;5.976;2023-08-31T11:42:54;71.88;48.00;84.15;;
66888;Laerm;67239;51.680;5.976;2023-08-31T11:45:23;67.05;48.30;80.48;;
66888;Laerm;67239;51.680;5.976;2023-08-31T11:47:52;67.90;51.91;81.49;;
66888;Laerm;67239;51.680;5.976;2023-08-31T11:50:21;66.87;48.29;82.63;;
66888;Laerm;67239;51.680;5.976;2023-08-31T11:52:51;70.91;48.69;81.76;;
66888;Laerm;67239;51.680;5.976;2023-08-31T11:55:20;71.47;48.21;86.45;;
66888;Laerm;67239;51.680;5.976;2023-08-31T11:57:52;67.76;46.82;80.72;;
66888;Laerm;67239;51.680;5.976;2023-08-31T12:00:22;66.87;46.60;78.39;;
66888;Laerm;67239;51.680;5.976;2023-08-31T12:03:00;70.31;44.20;82.26;;
66888;Laerm;67239;51.680;5.976;2023-08-31T12:05:28;69.26;44.88;84.14;;
66888;Laerm;67239;51.680;5.976;2023-08-31T12:07:56;70.95;49.32;84.00;;
66888;Laerm;67239;51.680;5.976;2023-08-31T12:10:25;67.65;48.36;80.16;;
66888;Laerm;67239;51.680;5.976;2023-08-31T12:12:52;68.87;48.30;81.51;;
66888;Laerm;67239;51.680;5.976;2023-08-31T12:15:22;66.65;45.03;78.76;;
66888;Laerm;67239;51.680;5.976;2023-08-31T12:17:50;69.19;47.36;78.86;;
66888;Laerm;67239;51.680;5.976;2023-08-31T12:20:26;69.17;44.54;81.63;;
66888;Laerm;67239;51.680;5.976;2023-08-31T12:22:53;69.63;44.64;82.30;;
66888;Laerm;67239;51.680;5.976;2023-08-31T12:25:22;67.25;43.63;80.34;;
66888;Laerm;67239;51.680;5.976;2023-08-31T12:27:49;67.40;44.14;80.67;;
66888;Laerm;67239;51.680;5.976;2023-08-31T12:30:18;68.49;44.10;81.76;;
66888;Laerm;67239;51.680;5.976;2023-08-31T12:32:46;67.96;45.36;81.07;;
66888;Laerm;67239;51.680;5.976;2023-08-31T12:35:13;69.79;45.30;82.65;;
66888;Laerm;67239;51.680;5.976;2023-08-31T12:37:41;68.71;50.59;80.70;;
66888;Laerm;67239;51.680;5.976;2023-08-31T12:40:09;69.86;52.38;83.39;;
66888;Laerm;67239;51.680;5.976;2023-08-31T12:42:37;72.48;55.68;85.03;;
66888;Laerm;67239;51.680;5.976;2023-08-31T12:45:05;69.38;48.90;83.33;;
66888;Laerm;67239;51.680;5.976;2023-08-31T12:47:34;70.58;48.65;81.31;;
66888;Laerm;67239;51.680;5.976;2023-08-31T12:50:02;68.50;49.55;80.48;;
66888;Laerm;67239;51.680;5.976;2023-08-31T12:52:30;73.41;49.32;89.82;;
66888;Laerm;67239;51.680;5.976;2023-08-31T12:54:57;69.92;44.73;83.06;;
66888;Laerm;67239;51.680;5.976;2023-08-31T12:57:24;65.44;43.39;79.29;;
66888;Laerm;67239;51.680;5.976;2023-08-31T12:59:51;67.08;44.38;77.35;;
66888;Laerm;67239;51.680;5.976;2023-08-31T13:02:18;67.76;47.29;78.70;;
66888;Laerm;67239;51.680;5.976;2023-08-31T13:04:47;71.40;45.86;90.35;;
66888;Laerm;67239;51.680;5.976;2023-08-31T13:07:14;68.62;45.88;82.15;;
66888;Laerm;67239;51.680;5.976;2023-08-31T13:09:41;67.18;44.75;79.54;;
66888;Laerm;67239;51.680;5.976;2023-08-31T13:12:08;71.59;46.94;82.80;;
66888;Laerm;67239;51.680;5.976;2023-08-31T13:14:35;69.83;48.10;82.89;;
66888;Laerm;67239;51.680;5.976;2023-08-31T13:17:03;69.49;47.00;82.20;;
66888;Laerm;67239;51.680;5.976;2023-08-31T13:19:30;67.60;44.86;81.36;;
66888;Laerm;67239;51.680;5.976;2023-08-31T13:21:58;68.71;45.63;84.58;;
66888;Laerm;67239;51.680;5.976;2023-08-31T13:24:25;64.98;43.94;75.94;;
66888;Laerm;67239;51.680;5.976;2023-08-31T13:26:52;66.86;44.03;79.30;;
66888;Laerm;67239;51.680;5.976;2023-08-31T13:29:19;70.30;49.46;82.43;;
66888;Laerm;67239;51.680;5.976;2023-08-31T13:31:46;70.27;46.82;82.26;;
66888;Laerm;67239;51.680;5.976;2023-08-31T13:34:13;68.85;43.83;79.76;;
66888;Laerm;67239;51.680;5.976;2023-08-31T13:36:42;67.19;43.94;79.74;;
66888;Laerm;67239;51.680;5.976;2023-08-31T13:39:09;68.19;46.65;78.95;;
66888;Laerm;67239;51.680;5.976;2023-08-31T13:41:36;69.67;49.50;79.29;;
66888;Laerm;67239;51.680;5.976;2023-08-31T13:44:05;68.03;43.59;81.40;;
66888;Laerm;67239;51.680;5.976;2023-08-31T13:46:32;69.89;44.70;86.27;;
66888;Laerm;67239;51.680;5.976;2023-08-31T13:48:59;67.01;43.08;80.18;;
66888;Laerm;67239;51.680;5.976;2023-08-31T13:51:28;68.47;46.26;81.86;;
66888;Laerm;67239;51.680;5.976;2023-08-31T13:53:56;68.93;44.61;79.83;;
66888;Laerm;67239;51.680;5.976;2023-08-31T13:56:23;62.61;44.20;74.25;;
66888;Laerm;67239;51.680;5.976;2023-08-31T13:58:50;68.25;43.81;79.63;;
66888;Laerm;67239;51.680;5.976;2023-08-31T14:01:17;69.39;50.48;79.68;;
66888;Laerm;67239;51.680;5.976;2023-08-31T14:03:44;70.35;49.80;82.29;;